Time;durP1;ratioP1;P1;durP2;ratioP2;P2;SDS_P1;SDS_P2;PMS_P1;PMS_P2;Temp;Humidity;BMP_temperature;BMP_pressure;BME280_temperature;BME280_humidity;BME280_pressure;Samples;Min_cycle;Max_cycle;Signal;HPM_P1;HPM_P2
2023/04/27 00:00:46;;;;;;;;;;;7.20;99.90;;;;;;5033178;28;19940;-86
2023/04/27 00:03:12;;;;;;;;;;;7.30;99.90;;;;;;5033981;28;19952;-84
2023/04/27 00:05:37;;;;;;;;;;;7.20;99.90;;;;;;5033495;28;19905;-83
2023/04/27 00:08:07;;;;;;;;;;;7.20;99.90;;;;;;5031103;28;20425;-82
2023/04/27 00:10:33;;;;;;;;;;;7.20;99.90;;;;;;5029884;28;20418;-82
2023/04/27 00:12:58;;;;;;;;;;;7.20;99.90;;;;;;5032523;28;19992;-84
2023/04/27 00:15:24;;;;;;;;;;;7.20;99.90;;;;;;5032276;28;20235;-84
2023/04/27 00:17:50;;;;;;;;;;;7.30;99.90;;;;;;5032388;28;19905;-85
2023/04/27 00:20:15;;;;;;;;;;;7.30;99.90;;;;;;5031976;28;20035;-86
2023/04/27 00:22:41;;;;;;;;;;;7.30;99.90;;;;;;5032677;28;20012;-87
2023/04/27 00:25:07;;;;;;;;;;;7.30;99.90;;;;;;5031902;28;19905;-86
2023/04/27 00:27:32;;;;;;;;;;;7.30;99.90;;;;;;5032953;28;20373;-85
2023/04/27 00:29:58;;;;;;;;;;;7.30;99.90;;;;;;5033568;28;19944;-85
2023/04/27 00:32:23;;;;;;;;;;;7.30;99.90;;;;;;5032494;28;19909;-86
2023/04/27 00:34:49;;;;;;;;;;;7.30;99.90;;;;;;5032979;28;20369;-86
2023/04/27 00:37:15;;;;;;;;;;;7.20;99.90;;;;;;5031897;28;20000;-84
2023/04/27 00:39:40;;;;;;;;;;;7.20;99.90;;;;;;5031841;28;19912;-85
2023/04/27 00:42:10;;;;;;;;;;;7.20;99.90;;;;;;5031988;28;19913;-85
2023/04/27 00:44:35;;;;;;;;;;;7.20;99.90;;;;;;5032819;28;19909;-84
2023/04/27 00:47:01;;;;;;;;;;;7.20;99.90;;;;;;5032041;28;20004;-85
2023/04/27 00:49:27;;;;;;;;;;;7.20;99.90;;;;;;5032351;28;20293;-85
2023/04/27 00:51:53;;;;;;;;;;;7.10;99.90;;;;;;5032531;28;19959;-85
2023/04/27 00:54:20;;;;;;;;;;;7.10;99.90;;;;;;5031825;28;20405;-85
2023/04/27 00:56:49;;;;;;;;;;;7.10;99.90;;;;;;5031822;28;19970;-85
2023/04/27 00:59:15;;;;;;;;;;;7.10;99.90;;;;;;5032108;28;19912;-85
2023/04/27 01:01:40;;;;;;;;;;;7.10;99.90;;;;;;5031871;28;20022;-85
2023/04/27 01:04:06;;;;;;;;;;;7.10;99.90;;;;;;5031720;28;19905;-85
2023/04/27 01:06:32;;;;;;;;;;;7.10;99.90;;;;;;5031838;28;19931;-85
2023/04/27 01:08:57;;;;;;;;;;;7.00;99.90;;;;;;5030817;28;20475;-85
2023/04/27 01:11:23;;;;;;;;;;;7.00;99.90;;;;;;5031531;28;19932;-85
2023/04/27 01:13:48;;;;;;;;;;;6.90;99.90;;;;;;5033094;28;19909;-85
2023/04/27 01:16:16;;;;;;;;;;;6.80;99.90;;;;;;5031717;28;20395;-85
2023/04/27 01:18:43;;;;;;;;;;;6.70;99.90;;;;;;5031856;28;19996;-85
2023/04/27 01:21:08;;;;;;;;;;;6.70;99.90;;;;;;5031233;28;19959;-85
2023/04/27 01:23:34;;;;;;;;;;;6.60;99.90;;;;;;5033009;28;19912;-85
2023/04/27 01:26:00;;;;;;;;;;;6.60;99.90;;;;;;5031866;28;20273;-85
2023/04/27 01:28:25;;;;;;;;;;;6.50;99.90;;;;;;5031353;28;19913;-85
2023/04/27 01:30:51;;;;;;;;;;;6.50;99.90;;;;;;5031576;28;19955;-85
2023/04/27 01:33:16;;;;;;;;;;;6.50;99.90;;;;;;5031359;28;19908;-85
2023/04/27 01:35:42;;;;;;;;;;;6.50;99.90;;;;;;5047750;28;19963;-85
2023/04/27 01:38:07;;;;;;;;;;;6.40;99.90;;;;;;5035561;28;19905;-84
2023/04/27 01:40:33;;;;;;;;;;;6.40;99.90;;;;;;5035712;28;19905;-85
2023/04/27 01:42:58;;;;;;;;;;;6.40;99.90;;;;;;5035716;28;19912;-85
2023/04/27 01:45:24;;;;;;;;;;;6.40;99.90;;;;;;5036009;28;20277;-85
2023/04/27 01:47:51;;;;;;;;;;;6.40;99.90;;;;;;5035430;28;20367;-84
2023/04/27 01:50:16;;;;;;;;;;;6.20;99.90;;;;;;5035894;28;19905;-85
2023/04/27 01:52:42;;;;;;;;;;;6.20;99.90;;;;;;5036461;28;20344;-85
2023/04/27 01:55:08;;;;;;;;;;;6.10;99.90;;;;;;5035444;28;19963;-84
2023/04/27 01:57:33;;;;;;;;;;;6.00;99.90;;;;;;5033347;28;20016;-85
2023/04/27 01:59:59;;;;;;;;;;;5.90;99.90;;;;;;5035020;28;19905;-85
2023/04/27 02:02:24;;;;;;;;;;;5.80;99.90;;;;;;5034926;28;19913;-85
2023/04/27 02:04:50;;;;;;;;;;;5.80;99.90;;;;;;5034948;28;19905;-85
2023/04/27 02:07:15;;;;;;;;;;;5.70;99.90;;;;;;5032632;28;20110;-85
2023/04/27 02:09:41;;;;;;;;;;;5.70;99.90;;;;;;5032134;28;19951;-83
2023/04/27 02:12:06;;;;;;;;;;;5.60;99.90;;;;;;5034584;28;19905;-84
2023/04/27 02:14:32;;;;;;;;;;;5.60;99.90;;;;;;5034436;28;19949;-85
2023/04/27 02:16:58;;;;;;;;;;;5.50;99.90;;;;;;5034653;28;19988;-85
2023/04/27 02:19:23;;;;;;;;;;;5.50;99.90;;;;;;5034808;28;19905;-84
2023/04/27 02:21:49;;;;;;;;;;;5.60;99.90;;;;;;5034736;28;19920;-85
2023/04/27 02:24:15;;;;;;;;;;;5.60;99.90;;;;;;5032985;28;20349;-85
2023/04/27 02:26:40;;;;;;;;;;;5.60;99.90;;;;;;5034741;28;19905;-85
2023/04/27 02:29:06;;;;;;;;;;;5.60;99.90;;;;;;5034275;28;19958;-85
2023/04/27 02:31:32;;;;;;;;;;;5.70;99.90;;;;;;5033092;28;20271;-84
2023/04/27 02:33:57;;;;;;;;;;;5.50;99.90;;;;;;5033915;28;19905;-85
2023/04/27 02:36:23;;;;;;;;;;;5.50;99.90;;;;;;5034893;28;19982;-85
2023/04/27 02:38:48;;;;;;;;;;;5.50;99.90;;;;;;5035844;28;19937;-85
2023/04/27 02:41:14;;;;;;;;;;;5.40;99.90;;;;;;5034731;28;19924;-85
2023/04/27 02:43:40;;;;;;;;;;;5.40;99.90;;;;;;5034713;28;19963;-85
2023/04/27 02:46:05;;;;;;;;;;;5.30;99.90;;;;;;5051037;28;19955;-85
2023/04/27 02:48:31;;;;;;;;;;;5.30;99.90;;;;;;5033526;28;19913;-84
2023/04/27 02:50:57;;;;;;;;;;;5.20;99.90;;;;;;5036821;28;19970;-85
2023/04/27 02:53:22;;;;;;;;;;;5.20;99.90;;;;;;5034311;28;19970;-84
2023/04/27 02:55:48;;;;;;;;;;;5.10;99.90;;;;;;5034286;28;20004;-84
2023/04/27 02:58:14;;;;;;;;;;;5.20;99.90;;;;;;5034166;28;19928;-84
2023/04/27 03:00:40;;;;;;;;;;;5.20;99.90;;;;;;5034164;28;19909;-84
2023/04/27 03:03:06;;;;;;;;;;;5.20;99.90;;;;;;5033793;28;19921;-85
2023/04/27 03:05:32;;;;;;;;;;;5.30;99.90;;;;;;5033939;28;19905;-84
2023/04/27 03:07:57;;;;;;;;;;;5.30;99.90;;;;;;5034105;28;19913;-85
2023/04/27 03:10:23;;;;;;;;;;;5.30;99.90;;;;;;5034221;28;19913;-84
2023/04/27 03:12:48;;;;;;;;;;;5.30;99.90;;;;;;5033835;28;19905;-85
2023/04/27 03:15:14;;;;;;;;;;;5.40;99.90;;;;;;5033948;28;19905;-85
2023/04/27 03:17:39;;;;;;;;;;;5.40;99.90;;;;;;5035040;28;19905;-85
2023/04/27 03:20:08;;;;;;;;;;;5.40;99.90;;;;;;5033797;28;19916;-85
2023/04/27 03:22:34;;;;;;;;;;;5.40;99.90;;;;;;5033671;28;19936;-85
2023/04/27 03:25:00;;;;;;;;;;;5.50;99.90;;;;;;5033339;28;19912;-85
2023/04/27 03:27:25;;;;;;;;;;;5.50;99.90;;;;;;5034070;28;19909;-85
2023/04/27 03:29:54;;;;;;;;;;;5.50;99.90;;;;;;5033754;28;20286;-85
2023/04/27 03:32:20;;;;;;;;;;;5.50;99.90;;;;;;5033689;28;19916;-85
2023/04/27 03:34:45;;;;;;;;;;;5.50;99.90;;;;;;5033503;28;19909;-84
2023/04/27 03:37:11;;;;;;;;;;;5.40;99.90;;;;;;5033528;28;20280;-85
2023/04/27 03:39:36;;;;;;;;;;;5.40;99.90;;;;;;5033462;28;19905;-85
2023/04/27 03:42:02;;;;;;;;;;;5.40;99.90;;;;;;5034163;28;19912;-85
2023/04/27 03:44:27;;;;;;;;;;;5.40;99.90;;;;;;5033801;28;19908;-85
2023/04/27 03:46:53;;;;;;;;;;;5.30;99.90;;;;;;5032263;28;19905;-83
2023/04/27 03:49:19;;;;;;;;;;;5.30;99.90;;;;;;5032649;28;19948;-85
2023/04/27 03:51:44;;;;;;;;;;;5.30;99.90;;;;;;5033002;28;19995;-85
2023/04/27 03:54:10;;;;;;;;;;;5.30;99.90;;;;;;5034388;28;19909;-84
2023/04/27 03:56:35;;;;;;;;;;;5.20;99.90;;;;;;5032952;28;19967;-85
2023/04/27 03:59:02;;;;;;;;;;;5.20;99.90;;;;;;5032919;28;19909;-85
2023/04/27 04:01:29;;;;;;;;;;;5.10;99.90;;;;;;5033327;28;19905;-85
2023/04/27 04:03:55;;;;;;;;;;;5.10;99.90;;;;;;5033108;28;20377;-83
2023/04/27 04:06:21;;;;;;;;;;;5.10;99.90;;;;;;5032703;28;19925;-84
2023/04/27 04:08:47;;;;;;;;;;;5.10;99.90;;;;;;5032904;28;19959;-85
2023/04/27 04:11:12;;;;;;;;;;;5.00;99.90;;;;;;5033000;28;20282;-85
2023/04/27 04:13:38;;;;;;;;;;;5.00;99.90;;;;;;5032812;28;19905;-84
2023/04/27 04:16:05;;;;;;;;;;;5.00;99.90;;;;;;5033117;28;20333;-84
2023/04/27 04:18:30;;;;;;;;;;;5.00;99.90;;;;;;5032894;28;20361;-85
2023/04/27 04:20:56;;;;;;;;;;;5.00;99.90;;;;;;5033868;28;19912;-85
2023/04/27 04:23:22;;;;;;;;;;;5.10;99.90;;;;;;5032618;28;19936;-85
2023/04/27 04:25:48;;;;;;;;;;;5.20;99.90;;;;;;5032758;28;19976;-85
2023/04/27 04:28:13;;;;;;;;;;;5.40;99.90;;;;;;5030782;28;19908;-85
2023/04/27 04:30:39;;;;;;;;;;;5.50;99.90;;;;;;5030125;28;19905;-85
2023/04/27 04:33:05;;;;;;;;;;;5.50;99.90;;;;;;5032544;28;19905;-85
2023/04/27 04:35:33;;;;;;;;;;;5.50;99.90;;;;;;5032799;28;19940;-85
2023/04/27 04:37:59;;;;;;;;;;;5.50;99.90;;;;;;5031972;28;20014;-85
2023/04/27 04:40:24;;;;;;;;;;;5.70;99.90;;;;;;5032109;28;20365;-85
2023/04/27 04:42:50;;;;;;;;;;;5.90;99.90;;;;;;5031305;28;19913;-85
2023/04/27 04:45:16;;;;;;;;;;;6.10;99.90;;;;;;5031857;28;20005;-85
2023/04/27 04:47:41;;;;;;;;;;;6.20;99.90;;;;;;5031660;28;19988;-85
2023/04/27 04:50:08;;;;;;;;;;;6.30;99.90;;;;;;5048596;28;19905;-84
2023/04/27 04:52:35;;;;;;;;;;;6.30;99.90;;;;;;5032014;28;19956;-85
2023/04/27 04:55:02;;;;;;;;;;;6.30;99.90;;;;;;5031999;28;19905;-84
2023/04/27 04:57:28;;;;;;;;;;;6.20;99.90;;;;;;5031999;28;19924;-85
2023/04/27 04:59:54;;;;;;;;;;;6.30;99.90;;;;;;5033187;28;19909;-85
2023/04/27 05:02:20;;;;;;;;;;;6.50;99.90;;;;;;5032061;28;19920;-84
2023/04/27 05:04:45;;;;;;;;;;;6.60;99.90;;;;;;5030548;28;20353;-85
2023/04/27 05:07:11;;;;;;;;;;;7.00;99.90;;;;;;5030568;28;20293;-85
2023/04/27 05:09:37;;;;;;;;;;;7.60;99.90;;;;;;5030158;28;19909;-84
2023/04/27 05:12:03;;;;;;;;;;;8.40;99.90;;;;;;5030044;28;19911;-85
2023/04/27 05:14:28;;;;;;;;;;;9.00;99.90;;;;;;5031821;28;19904;-85
2023/04/27 05:16:54;;;;;;;;;;;9.40;99.90;;;;;;5032741;28;20417;-86
2023/04/27 05:19:19;;;;;;;;;;;9.90;99.90;;;;;;5031359;28;20557;-86
2023/04/27 05:21:45;;;;;;;;;;;10.40;98.40;;;;;;5031507;28;19909;-86
2023/04/27 05:24:11;;;;;;;;;;;10.70;95.60;;;;;;5031148;28;19913;-86
2023/04/27 05:26:37;;;;;;;;;;;11.10;93.40;;;;;;5031487;28;19909;-85
2023/04/27 05:29:03;;;;;;;;;;;11.20;88.70;;;;;;5031532;28;19909;-86
2023/04/27 05:31:28;;;;;;;;;;;11.40;87.70;;;;;;5030561;28;20438;-84
2023/04/27 05:33:54;;;;;;;;;;;11.80;86.30;;;;;;5032108;28;19909;-86
2023/04/27 05:36:19;;;;;;;;;;;12.30;81.70;;;;;;5029676;28;19916;-85
2023/04/27 05:38:45;;;;;;;;;;;13.00;74.20;;;;;;5029780;28;19909;-86
2023/04/27 05:41:11;;;;;;;;;;;13.80;65.50;;;;;;5030714;28;19967;-86
2023/04/27 05:43:39;;;;;;;;;;;14.70;58.00;;;;;;5032511;28;19917;-87
2023/04/27 05:46:04;;;;;;;;;;;15.40;52.60;;;;;;5031813;28;19952;-86
2023/04/27 05:48:30;;;;;;;;;;;15.40;50.70;;;;;;5031540;28;19943;-86
2023/04/27 05:51:00;;;;;;;;;;;15.00;50.20;;;;;;5048235;28;20395;-85
2023/04/27 05:53:25;;;;;;;;;;;14.50;50.00;;;;;;5032688;28;20373;-85
2023/04/27 05:55:51;;;;;;;;;;;13.60;51.20;;;;;;5030958;28;20000;-86
2023/04/27 05:58:16;;;;;;;;;;;12.90;53.70;;;;;;5031087;28;20024;-84
2023/04/27 06:00:42;;;;;;;;;;;12.80;56.70;;;;;;5031537;28;19905;-86
2023/04/27 06:03:07;;;;;;;;;;;13.30;58.20;;;;;;5029765;28;20033;-86
2023/04/27 06:05:33;;;;;;;;;;;14.50;55.80;;;;;;5032544;28;19952;-88
2023/04/27 06:07:59;;;;;;;;;;;15.60;52.10;;;;;;5031333;28;20365;-87
2023/04/27 06:10:24;;;;;;;;;;;16.40;49.90;;;;;;5029424;28;19913;-85
2023/04/27 06:12:50;;;;;;;;;;;17.30;47.10;;;;;;5029343;28;19909;-89
2023/04/27 06:15:15;;;;;;;;;;;18.30;45.10;;;;;;5029903;28;20390;-85
2023/04/27 06:17:42;;;;;;;;;;;18.80;43.90;;;;;;5031697;28;19915;-88
2023/04/27 06:20:08;;;;;;;;;;;19.40;42.40;;;;;;5029032;28;20369;-85
2023/04/27 06:22:37;;;;;;;;;;;19.50;41.70;;;;;;5031737;28;20563;-85
2023/04/27 06:25:03;;;;;;;;;;;19.90;40.50;;;;;;5035422;28;19915;-86
2023/04/27 06:27:28;;;;;;;;;;;20.40;39.10;;;;;;5033748;28;20293;-86
2023/04/27 06:29:54;;;;;;;;;;;20.70;37.00;;;;;;5033558;28;19950;-86
2023/04/27 06:32:20;;;;;;;;;;;21.00;36.80;;;;;;5033290;28;19909;-85
2023/04/27 06:34:46;;;;;;;;;;;21.10;36.30;;;;;;5032829;28;19952;-87
2023/04/27 06:37:11;;;;;;;;;;;21.20;34.50;;;;;;5033777;28;19944;-84
2023/04/27 06:39:37;;;;;;;;;;;21.20;34.20;;;;;;5033289;28;19905;-85
2023/04/27 06:42:03;;;;;;;;;;;21.00;33.80;;;;;;5033565;28;19917;-86
2023/04/27 06:44:28;;;;;;;;;;;21.20;33.90;;;;;;5033327;28;19905;-86
2023/04/27 06:46:54;;;;;;;;;;;21.30;33.90;;;;;;5034084;28;19940;-86
2023/04/27 06:49:20;;;;;;;;;;;21.20;34.80;;;;;;5032459;28;19909;-85
2023/04/27 06:51:46;;;;;;;;;;;21.50;34.10;;;;;;5031855;28;19909;-85
2023/04/27 06:54:12;;;;;;;;;;;21.60;33.70;;;;;;5032155;28;19908;-86
2023/04/27 06:56:38;;;;;;;;;;;21.60;31.80;;;;;;5032612;28;20385;-84
2023/04/27 06:59:03;;;;;;;;;;;20.90;31.80;;;;;;5033254;28;19974;-86
2023/04/27 07:01:29;;;;;;;;;;;20.80;31.50;;;;;;5034078;28;20273;-86
2023/04/27 07:03:56;;;;;;;;;;;19.90;31.60;;;;;;5033200;28;19920;-85
2023/04/27 07:06:21;;;;;;;;;;;19.00;33.60;;;;;;5033778;28;19905;-84
2023/04/27 07:08:47;;;;;;;;;;;18.10;35.00;;;;;;5033478;28;19916;-84
2023/04/27 07:11:12;;;;;;;;;;;17.90;37.00;;;;;;5035587;28;19916;-85
2023/04/27 07:13:38;;;;;;;;;;;18.00;38.50;;;;;;5032592;28;19919;-86
2023/04/27 07:16:04;;;;;;;;;;;19.00;37.00;;;;;;5031346;28;20378;-84
2023/04/27 07:18:29;;;;;;;;;;;20.00;34.30;;;;;;5033027;28;19912;-84
2023/04/27 07:20:56;;;;;;;;;;;20.60;33.60;;;;;;5031626;28;19909;-84
2023/04/27 07:23:22;;;;;;;;;;;20.90;32.70;;;;;;5033041;28;19924;-86
2023/04/27 07:25:48;;;;;;;;;;;21.50;31.70;;;;;;5033105;28;19905;-86
2023/04/27 07:28:34;;;;;;;;;;;21.60;30.00;;;;;;5031428;28;20392;-85
2023/04/27 07:31:00;;;;;;;;;;;21.50;31.80;;;;;;5048069;28;19905;-85
2023/04/27 07:33:26;;;;;;;;;;;21.90;30.40;;;;;;5032537;28;20116;-86
2023/04/27 07:35:52;;;;;;;;;;;21.40;30.10;;;;;;5030895;28;19909;-84
2023/04/27 07:38:18;;;;;;;;;;;20.70;30.00;;;;;;5032503;28;20324;-84
2023/04/27 07:40:45;;;;;;;;;;;19.80;31.40;;;;;;5048966;28;20011;-84
2023/04/27 07:43:10;;;;;;;;;;;18.50;33.70;;;;;;5032474;28;20004;-86
2023/04/27 07:45:38;;;;;;;;;;;17.60;35.00;;;;;;5032162;28;20004;-86
2023/04/27 07:48:03;;;;;;;;;;;16.70;36.20;;;;;;5034569;28;20432;-86
2023/04/27 07:50:30;;;;;;;;;;;16.00;36.90;;;;;;5034862;28;19952;-87
2023/04/27 07:52:55;;;;;;;;;;;15.50;39.40;;;;;;5032554;28;19954;-85
2023/04/27 07:55:22;;;;;;;;;;;14.90;40.30;;;;;;5031524;28;19909;-86
2023/04/27 07:58:06;;;;;;;;;;;14.60;41.50;;;;;;5032443;28;20329;-86
2023/04/27 08:00:31;;;;;;;;;;;14.20;42.10;;;;;;5033494;28;19905;-86
2023/04/27 08:02:57;;;;;;;;;;;13.90;43.60;;;;;;5033731;28;20364;-84
2023/04/27 08:05:22;;;;;;;;;;;13.70;43.90;;;;;;5033010;28;19913;-86
2023/04/27 08:07:48;;;;;;;;;;;13.60;44.80;;;;;;5031846;28;19916;-86
2023/04/27 08:10:14;;;;;;;;;;;13.60;45.60;;;;;;5030966;28;20389;-86
2023/04/27 08:12:40;;;;;;;;;;;14.30;44.80;;;;;;5031301;28;20313;-87
2023/04/27 08:15:06;;;;;;;;;;;15.30;43.40;;;;;;5032678;28;19909;-86
2023/04/27 08:17:31;;;;;;;;;;;15.60;41.10;;;;;;5032721;28;19963;-85
2023/04/27 08:19:57;;;;;;;;;;;15.50;41.00;;;;;;5048315;28;20692;-86
2023/04/27 08:22:23;;;;;;;;;;;15.10;41.70;;;;;;5032600;28;19920;-86
2023/04/27 08:24:48;;;;;;;;;;;14.70;42.80;;;;;;5049214;28;19909;-87
2023/04/27 08:27:14;;;;;;;;;;;14.40;43.60;;;;;;5049826;28;19909;-86
2023/04/27 08:29:46;;;;;;;;;;;14.10;44.20;;;;;;5031568;28;19940;-86
2023/04/27 08:32:12;;;;;;;;;;;13.70;45.00;;;;;;5032232;28;19905;-86
2023/04/27 08:34:38;;;;;;;;;;;13.50;44.30;;;;;;5032700;28;19928;-87
2023/04/27 08:37:03;;;;;;;;;;;13.30;45.30;;;;;;5031380;28;20385;-85
2023/04/27 08:39:29;;;;;;;;;;;13.20;46.00;;;;;;5032435;28;20396;-86
2023/04/27 08:41:55;;;;;;;;;;;13.20;47.40;;;;;;5032410;28;19909;-86
2023/04/27 08:44:20;;;;;;;;;;;13.20;46.00;;;;;;5032314;28;19913;-86
2023/04/27 08:46:46;;;;;;;;;;;13.10;47.20;;;;;;5033112;28;19948;-86
2023/04/27 08:49:11;;;;;;;;;;;13.10;48.00;;;;;;5048868;28;19905;-86
2023/04/27 08:51:37;;;;;;;;;;;13.10;48.50;;;;;;5033412;28;19909;-86
2023/04/27 08:54:03;;;;;;;;;;;13.20;47.70;;;;;;5032152;28;20019;-86
2023/04/27 08:56:29;;;;;;;;;;;13.30;48.00;;;;;;5032147;28;19907;-86
2023/04/27 08:58:55;;;;;;;;;;;13.50;46.70;;;;;;5032126;28;20388;-87
2023/04/27 09:01:22;;;;;;;;;;;13.60;47.40;;;;;;5030636;28;19928;-86
2023/04/27 09:03:48;;;;;;;;;;;13.80;46.70;;;;;;5032334;28;20717;-85
2023/04/27 09:06:13;;;;;;;;;;;14.00;46.10;;;;;;5030775;28;20498;-86
2023/04/27 09:08:43;;;;;;;;;;;14.40;45.70;;;;;;5030133;28;19909;-86
2023/04/27 09:11:09;;;;;;;;;;;14.70;43.40;;;;;;5032082;28;19912;-86
2023/04/27 09:13:37;;;;;;;;;;;15.50;42.60;;;;;;5031925;28;20296;-86
2023/04/27 09:16:03;;;;;;;;;;;16.40;41.90;;;;;;5031492;28;20366;-87
2023/04/27 09:18:32;;;;;;;;;;;16.50;38.60;;;;;;5031950;28;19909;-86
2023/04/27 09:20:59;;;;;;;;;;;15.80;39.90;;;;;;5031700;28;19905;-86
2023/04/27 09:23:28;;;;;;;;;;;15.20;40.70;;;;;;5031731;28;20003;-86
2023/04/27 09:25:55;;;;;;;;;;;14.60;40.80;;;;;;5032310;28;20383;-85
2023/04/27 09:28:21;;;;;;;;;;;14.10;42.00;;;;;;5031818;28;19927;-85
2023/04/27 09:30:53;;;;;;;;;;;13.90;43.90;;;;;;5033019;28;19959;-86
2023/04/27 09:33:26;;;;;;;;;;;13.70;44.10;;;;;;5048289;28;19905;-86
2023/04/27 09:35:52;;;;;;;;;;;13.40;45.10;;;;;;5031889;28;19905;-86
2023/04/27 09:38:18;;;;;;;;;;;13.20;44.70;;;;;;5031631;28;20389;-86
2023/04/27 09:40:44;;;;;;;;;;;13.10;43.60;;;;;;5031896;28;20340;-86
2023/04/27 09:43:10;;;;;;;;;;;12.90;45.50;;;;;;5031579;28;19913;-86
2023/04/27 09:45:36;;;;;;;;;;;13.00;45.70;;;;;;5031699;28;19948;-85
2023/04/27 09:48:03;;;;;;;;;;;13.00;45.00;;;;;;5031731;28;19904;-85
2023/04/27 09:50:29;;;;;;;;;;;12.90;45.60;;;;;;5032984;28;19905;-86
2023/04/27 09:52:55;;;;;;;;;;;13.00;44.40;;;;;;5031828;28;19905;-86
2023/04/27 09:55:26;;;;;;;;;;;13.20;43.70;;;;;;5031501;28;20267;-86
2023/04/27 09:58:05;;;;;;;;;;;14.30;44.80;;;;;;5033271;28;19917;-87
2023/04/27 10:00:30;;;;;;;;;;;15.50;42.30;;;;;;5035757;28;19912;-86
2023/04/27 10:03:02;;;;;;;;;;;15.80;39.30;;;;;;5051811;28;19917;-88
2023/04/27 10:05:47;;;;;;;;;;;15.90;38.90;;;;;;5035275;28;19905;-87
2023/04/27 10:08:13;;;;;;;;;;;15.80;38.60;;;;;;5051966;28;19944;-86
2023/04/27 10:10:46;;;;;;;;;;;15.40;38.70;;;;;;5036620;28;19988;-86
2023/04/27 10:13:19;;;;;;;;;;;15.10;39.80;;;;;;5035415;28;19928;-85
2023/04/27 10:15:45;;;;;;;;;;;14.80;37.70;;;;;;5036013;28;19912;-86
2023/04/27 10:18:11;;;;;;;;;;;14.70;37.50;;;;;;5034803;28;19992;-86
2023/04/27 10:20:36;;;;;;;;;;;14.30;37.50;;;;;;5034962;28;19921;-87
2023/04/27 10:23:02;;;;;;;;;;;14.40;38.80;;;;;;5035118;28;19970;-86
2023/04/27 10:25:39;;;;;;;;;;;14.80;39.90;;;;;;5034465;28;20007;-86
2023/04/27 10:28:06;;;;;;;;;;;15.40;40.00;;;;;;5035146;28;19962;-87
2023/04/27 10:30:33;;;;;;;;;;;15.90;35.90;;;;;;5035023;28;20333;-87
2023/04/27 10:33:03;;;;;;;;;;;16.10;36.20;;;;;;5034907;28;19905;-86
2023/04/27 10:35:33;;;;;;;;;;;16.20;34.40;;;;;;5036394;28;20280;-87
2023/04/27 10:38:09;;;;;;;;;;;16.00;33.70;;;;;;5035082;28;19905;-86
2023/04/27 10:40:35;;;;;;;;;;;16.00;34.90;;;;;;5035074;28;19905;-86
2023/04/27 10:43:11;;;;;;;;;;;16.10;33.50;;;;;;5036239;28;19960;-86
2023/04/27 10:45:36;;;;;;;;;;;16.00;34.60;;;;;;5033904;28;19916;-87
2023/04/27 10:48:02;;;;;;;;;;;16.20;36.80;;;;;;5034857;28;19909;-84
2023/04/27 10:50:28;;;;;;;;;;;16.00;34.50;;;;;;5034431;28;19905;-87
2023/04/27 10:52:59;;;;;;;;;;;15.80;33.90;;;;;;5034498;28;19955;-87
2023/04/27 10:55:25;;;;;;;;;;;15.80;36.70;;;;;;5034759;28;19905;-86
2023/04/27 10:57:52;;;;;;;;;;;15.90;34.90;;;;;;5034382;28;19921;-87
2023/04/27 11:00:22;;;;;;;;;;;16.10;37.40;;;;;;5033312;28;19909;-85
2023/04/27 11:02:48;;;;;;;;;;;16.30;35.50;;;;;;5034722;28;19913;-87
2023/04/27 11:05:17;;;;;;;;;;;16.20;35.70;;;;;;5037261;28;20051;-87
2023/04/27 11:07:43;;;;;;;;;;;16.20;34.50;;;;;;5033927;28;20374;-87
2023/04/27 11:10:09;;;;;;;;;;;16.20;33.30;;;;;;5033446;28;19905;-86
2023/04/27 11:12:35;;;;;;;;;;;16.10;33.50;;;;;;5050749;28;19943;-87
2023/04/27 11:15:00;;;;;;;;;;;16.00;34.40;;;;;;5034404;28;19959;-86
2023/04/27 11:17:29;;;;;;;;;;;15.90;33.90;;;;;;5034285;28;19909;-86
2023/04/27 11:19:55;;;;;;;;;;;15.80;34.00;;;;;;5034023;28;19913;-86
2023/04/27 11:22:20;;;;;;;;;;;15.60;34.10;;;;;;5033997;28;19909;-87
2023/04/27 11:24:47;;;;;;;;;;;15.50;40.20;;;;;;5031775;28;19913;-86
2023/04/27 11:27:13;;;;;;;;;;;15.20;40.20;;;;;;5033803;28;20366;-86
2023/04/27 11:29:39;;;;;;;;;;;14.90;41.90;;;;;;5033956;28;19912;-86
2023/04/27 11:32:04;;;;;;;;;;;14.60;42.30;;;;;;5034290;28;20407;-87
2023/04/27 11:34:35;;;;;;;;;;;14.50;42.60;;;;;;5035046;28;19912;-86
2023/04/27 11:37:02;;;;;;;;;;;14.50;41.80;;;;;;5033651;28;19962;-87
2023/04/27 11:39:40;;;;;;;;;;;14.30;42.60;;;;;;5033392;28;19905;-86
2023/04/27 11:42:22;;;;;;;;;;;14.10;43.80;;;;;;5033316;28;19920;-86
2023/04/27 11:44:51;;;;;;;;;;;14.30;42.10;;;;;;5033511;28;19930;-86
2023/04/27 11:47:21;;;;;;;;;;;14.40;43.20;;;;;;5033383;28;19917;-86
2023/04/27 11:49:51;;;;;;;;;;;14.50;42.70;;;;;;5033560;28;20347;-86
2023/04/27 11:52:16;;;;;;;;;;;14.50;41.60;;;;;;5033310;28;19909;-86
2023/04/27 11:54:50;;;;;;;;;;;14.40;40.90;;;;;;5034749;28;20038;-86
2023/04/27 11:57:16;;;;;;;;;;;14.70;41.10;;;;;;5034188;28;19999;-86
2023/04/27 11:59:41;;;;;;;;;;;14.90;40.50;;;;;;5034540;28;19933;-86
2023/04/27 12:02:07;;;;;;;;;;;15.10;39.10;;;;;;5032971;28;19909;-85
2023/04/27 12:04:33;;;;;;;;;;;15.30;40.70;;;;;;5033205;28;19951;-86
2023/04/27 12:07:00;;;;;;;;;;;15.30;40.90;;;;;;5031978;28;19909;-85
2023/04/27 12:09:25;;;;;;;;;;;15.60;43.30;;;;;;5031677;28;20012;-86
2023/04/27 12:11:53;;;;;;;;;;;15.90;39.00;;;;;;5033224;28;19991;-87
2023/04/27 12:14:19;;;;;;;;;;;15.70;38.20;;;;;;5032832;28;19912;-86
2023/04/27 12:16:45;;;;;;;;;;;15.60;39.70;;;;;;5033410;28;19905;-85
2023/04/27 12:19:10;;;;;;;;;;;15.50;40.80;;;;;;5032904;28;20332;-87
2023/04/27 12:21:36;;;;;;;;;;;15.30;42.10;;;;;;5033290;28;19905;-86
2023/04/27 12:24:01;;;;;;;;;;;15.00;40.70;;;;;;5032790;28;20504;-86
2023/04/27 12:26:28;;;;;;;;;;;14.80;40.10;;;;;;5032531;28;20313;-86
2023/04/27 12:28:53;;;;;;;;;;;14.60;41.60;;;;;;5033015;28;19905;-85
2023/04/27 12:31:23;;;;;;;;;;;14.50;42.00;;;;;;5033189;28;19996;-86
2023/04/27 12:33:49;;;;;;;;;;;14.50;41.70;;;;;;5032429;28;19912;-86
2023/04/27 12:36:15;;;;;;;;;;;14.40;42.70;;;;;;5032964;28;19952;-86
2023/04/27 12:38:41;;;;;;;;;;;14.40;42.70;;;;;;5032840;28;19929;-86
2023/04/27 12:41:06;;;;;;;;;;;14.60;43.00;;;;;;5032310;28;19909;-85
2023/04/27 12:43:32;;;;;;;;;;;14.70;42.80;;;;;;5032884;28;19913;-86
2023/04/27 12:45:57;;;;;;;;;;;14.90;40.60;;;;;;5032516;28;19947;-86
2023/04/27 12:48:23;;;;;;;;;;;14.90;40.30;;;;;;5032542;28;19958;-86
2023/04/27 12:50:49;;;;;;;;;;;14.80;39.50;;;;;;5032663;28;20004;-86
2023/04/27 12:53:14;;;;;;;;;;;14.70;39.30;;;;;;5032444;28;19960;-87
2023/04/27 12:55:40;;;;;;;;;;;14.70;40.50;;;;;;5031376;28;19912;-86
2023/04/27 12:58:06;;;;;;;;;;;14.70;41.40;;;;;;5031104;28;19928;-86
2023/04/27 13:00:33;;;;;;;;;;;14.80;40.40;;;;;;5033103;28;19911;-86
2023/04/27 13:02:58;;;;;;;;;;;14.90;40.20;;;;;;5032577;28;20007;-86
2023/04/27 13:05:24;;;;;;;;;;;15.10;38.30;;;;;;5032575;28;20401;-86
2023/04/27 13:07:50;;;;;;;;;;;15.10;38.10;;;;;;5032108;28;19909;-87
2023/04/27 13:10:16;;;;;;;;;;;15.20;38.10;;;;;;5031961;28;20464;-86
2023/04/27 13:12:41;;;;;;;;;;;15.10;38.40;;;;;;5030743;28;20012;-86
2023/04/27 13:15:07;;;;;;;;;;;15.30;39.30;;;;;;5031783;28;19940;-86
2023/04/27 13:17:33;;;;;;;;;;;15.40;36.80;;;;;;5033169;28;19909;-87
2023/04/27 13:19:59;;;;;;;;;;;15.60;39.20;;;;;;5030856;28;19932;-87
2023/04/27 13:22:24;;;;;;;;;;;16.00;39.30;;;;;;5030993;28;20281;-87
2023/04/27 13:24:50;;;;;;;;;;;16.30;38.90;;;;;;5032465;28;19964;-87
2023/04/27 13:27:16;;;;;;;;;;;16.30;39.20;;;;;;5032050;28;19940;-86
2023/04/27 13:29:41;;;;;;;;;;;16.30;38.60;;;;;;5032166;28;19952;-87
2023/04/27 13:32:07;;;;;;;;;;;16.30;37.90;;;;;;5032616;28;19905;-86
2023/04/27 13:34:33;;;;;;;;;;;16.20;37.80;;;;;;5036541;28;20377;-87
2023/04/27 13:36:58;;;;;;;;;;;16.20;38.20;;;;;;5036116;28;19905;-86
2023/04/27 13:39:24;;;;;;;;;;;16.20;35.00;;;;;;5036099;28;20362;-87
2023/04/27 13:41:50;;;;;;;;;;;16.00;34.50;;;;;;5050407;28;19909;-86
2023/04/27 13:44:15;;;;;;;;;;;15.90;35.00;;;;;;5033515;28;20344;-85
2023/04/27 13:46:41;;;;;;;;;;;15.60;35.90;;;;;;5035878;28;19909;-86
2023/04/27 13:49:06;;;;;;;;;;;15.50;36.20;;;;;;5035793;28;19928;-86
2023/04/27 13:51:32;;;;;;;;;;;15.60;37.10;;;;;;5035833;28;20392;-86
2023/04/27 13:53:57;;;;;;;;;;;15.50;39.00;;;;;;5034780;28;20362;-86
2023/04/27 13:56:23;;;;;;;;;;;15.60;38.60;;;;;;5034729;28;20362;-86
2023/04/27 13:58:48;;;;;;;;;;;15.30;39.40;;;;;;5035231;28;19916;-86
2023/04/27 14:01:14;;;;;;;;;;;15.20;41.30;;;;;;5035370;28;19909;-86
2023/04/27 14:03:40;;;;;;;;;;;15.20;39.20;;;;;;5035091;28;20382;-86
2023/04/27 14:06:06;;;;;;;;;;;15.00;41.50;;;;;;5035426;28;20015;-86
2023/04/27 14:08:31;;;;;;;;;;;14.80;40.40;;;;;;5036549;28;19909;-87
2023/04/27 14:10:57;;;;;;;;;;;14.70;42.40;;;;;;5051837;28;20362;-86
2023/04/27 14:13:23;;;;;;;;;;;14.80;43.70;;;;;;5035398;28;19909;-86
2023/04/27 14:15:48;;;;;;;;;;;15.10;41.00;;;;;;5036537;28;20051;-86